Time;durP1;ratioP1;P1;durP2;ratioP2;P2;SDS_P1;SDS_P2;PMS_P1;PMS_P2;Temp;Humidity;BMP_temperature;BMP_pressure;BME280_temperature;BME280_humidity;BME280_pressure;Samples;Min_cycle;Max_cycle;Signal;HPM_P1;HPM_P2
2023/08/09 00:02:02;;;;;;;3.08;1.70;;;;;;;;;;5114201;28;20054;-60
2023/08/09 00:04:32;;;;;;;2.03;1.27;;;;;;;;;;5114604;28;20067;-59
2023/08/09 00:07:01;;;;;;;2.20;1.80;;;;;;;;;;5117618;27;20054;-58
2023/08/09 00:09:27;;;;;;;2.33;1.30;;;;;;;;;;5118549;27;20048;-59
2023/08/09 00:11:58;;;;;;;1.55;1.13;;;;;;;;;;5114491;28;20047;-59
2023/08/09 00:14:28;;;;;;;1.80;1.20;;;;;;;;;;5115035;27;20055;-60
2023/08/09 00:16:54;;;;;;;2.63;1.60;;;;;;;;;;5113879;28;20055;-58
2023/08/09 00:19:24;;;;;;;2.15;1.50;;;;;;;;;;5114934;28;20054;-59
2023/08/09 00:21:50;;;;;;;;;;;;;;;;;;5114989;28;20047;-59
2023/08/09 00:24:17;;;;;;;2.78;1.60;;;;;;;;;;5114331;28;19927;-59
2023/08/09 00:26:44;;;;;;;1.70;1.35;;;;;;;;;;5114345;28;20058;-59
2023/08/09 00:29:13;;;;;;;1.90;1.10;;;;;;;;;;5116594;27;20488;-59
2023/08/09 00:31:40;;;;;;;1.45;0.98;;;;;;;;;;5114407;28;20048;-59
2023/08/09 00:34:07;;;;;;;4.18;1.50;;;;;;;;;;5113647;28;20392;-59
2023/08/09 00:36:35;;;;;;;3.38;2.47;;;;;;;;;;5113750;28;20051;-59
2023/08/09 00:39:05;;;;;;;4.30;3.40;;;;;;;;;;5114468;28;20055;-58
2023/08/09 00:41:32;;;;;;;4.47;3.60;;;;;;;;;;5113932;28;20433;-58
2023/08/09 00:43:59;;;;;;;5.03;3.83;;;;;;;;;;5115708;27;20395;-58
2023/08/09 00:46:26;;;;;;;3.72;3.15;;;;;;;;;;5113978;28;20054;-59
2023/08/09 00:48:52;;;;;;;5.90;3.70;;;;;;;;;;5113966;28;20067;-59
2023/08/09 00:51:19;;;;;;;4.75;3.80;;;;;;;;;;5113790;28;20476;-58
2023/08/09 00:53:48;;;;;;;5.45;4.30;;;;;;;;;;5113879;28;20055;-58
2023/08/09 00:56:15;;;;;;;5.93;4.90;;;;;;;;;;5114027;28;20066;-59
2023/08/09 00:58:41;;;;;;;5.75;4.63;;;;;;;;;;5113143;28;20476;-59
2023/08/09 01:01:08;;;;;;;4.85;3.85;;;;;;;;;;5114065;27;20051;-59
2023/08/09 01:03:35;;;;;;;5.10;3.75;;;;;;;;;;5093335;28;20056;-59
2023/08/09 01:06:05;;;;;;;3.45;2.53;;;;;;;;;;5093433;28;20063;-59
2023/08/09 01:08:36;;;;;;;3.42;2.65;;;;;;;;;;5093380;28;20059;-59
2023/08/09 01:11:08;;;;;;;3.28;2.30;;;;;;;;;;5131932;27;20051;-59
2023/08/09 01:13:36;;;;;;;3.38;2.40;;;;;;;;;;5131854;27;20403;-59
2023/08/09 01:16:03;;;;;;;2.97;2.08;;;;;;;;;;5113004;28;20059;-58
2023/08/09 01:18:30;;;;;;;5.60;2.70;;;;;;;;;;5113623;28;20048;-59
2023/08/09 01:20:57;;;;;;;2.53;2.13;;;;;;;;;;5113166;28;20051;-59
2023/08/09 01:23:30;;;;;;;2.50;2.00;;;;;;;;;;5112897;27;20043;-59
2023/08/09 01:25:57;;;;;;;3.13;2.17;;;;;;;;;;5113507;28;20047;-59
2023/08/09 01:28:24;;;;;;;2.70;2.17;;;;;;;;;;5113198;28;20056;-59
2023/08/09 01:30:51;;;;;;;4.20;2.58;;;;;;;;;;5112943;28;20051;-58
2023/08/09 01:33:18;;;;;;;4.63;3.20;;;;;;;;;;5110711;27;20424;-59
2023/08/09 01:35:48;;;;;;;5.78;4.20;;;;;;;;;;5113246;28;20412;-59
2023/08/09 01:38:21;;;;;;;6.57;5.50;;;;;;;;;;5112911;28;20249;-58
2023/08/09 01:40:49;;;;;;;7.25;6.07;;;;;;;;;;5112960;28;20169;-59
2023/08/09 01:43:17;;;;;;;6.70;5.65;;;;;;;;;;5112836;28;20487;-59
2023/08/09 01:45:43;;;;;;;9.27;7.20;;;;;;;;;;5112551;28;20055;-59
2023/08/09 01:48:10;;;;;;;8.10;6.53;;;;;;;;;;5111754;28;20054;-59
2023/08/09 01:50:37;;;;;;;8.57;6.60;;;;;;;;;;5113145;28;20066;-59
2023/08/09 01:53:04;;;;;;;7.68;5.88;;;;;;;;;;5112965;28;20055;-60
2023/08/09 01:55:31;;;;;;;6.78;5.63;;;;;;;;;;5112916;28;20049;-59
2023/08/09 01:57:59;;;;;;;7.45;6.07;;;;;;;;;;5112979;28;20051;-59
2023/08/09 02:00:27;;;;;;;7.10;5.43;;;;;;;;;;5107644;28;20056;-59
2023/08/09 02:02:54;;;;;;;6.35;4.93;;;;;;;;;;5107337;28;20052;-59
2023/08/09 02:05:21;;;;;;;8.15;5.25;;;;;;;;;;5112610;28;20058;-59
2023/08/09 02:07:50;;;;;;;6.43;4.85;;;;;;;;;;5112696;28;20052;-59
2023/08/09 02:10:17;;;;;;;6.70;5.23;;;;;;;;;;5112866;28;20059;-59
2023/08/09 02:12:47;;;;;;;6.25;5.20;;;;;;;;;;5130550;28;21000;-59
2023/08/09 02:15:16;;;;;;;6.70;5.60;;;;;;;;;;5120217;28;20055;-59
2023/08/09 02:17:43;;;;;;;6.10;5.07;;;;;;;;;;5112871;28;20059;-58
2023/08/09 02:20:11;;;;;;;6.18;4.90;;;;;;;;;;5112778;28;20052;-59
2023/08/09 02:22:39;;;;;;;7.60;5.10;;;;;;;;;;5112559;28;20048;-59
2023/08/09 02:25:06;;;;;;;4.85;4.03;;;;;;;;;;5112918;28;20523;-59
2023/08/09 02:27:33;;;;;;;5.10;4.07;;;;;;;;;;5112740;28;20055;-59
2023/08/09 02:30:03;;;;;;;6.85;4.38;;;;;;;;;;5113094;28;20058;-59
2023/08/09 02:32:30;;;;;;;;;;;;;;;;;;5112206;28;20050;-59
2023/08/09 02:34:58;;;;;;;4.55;3.95;;;;;;;;;;5112453;28;19919;-59
2023/08/09 02:37:25;;;;;;;4.72;3.92;;;;;;;;;;5112591;28;20047;-59
2023/08/09 02:39:54;;;;;;;5.43;4.10;;;;;;;;;;5112425;28;20055;-59
2023/08/09 02:42:20;;;;;;;4.40;3.67;;;;;;;;;;5111912;28;20055;-59
2023/08/09 02:44:47;;;;;;;4.90;4.40;;;;;;;;;;5111001;28;20122;-59
2023/08/09 02:47:14;;;;;;;5.53;4.60;;;;;;;;;;5111964;28;20055;-59
2023/08/09 02:49:43;;;;;;;4.75;4.20;;;;;;;;;;5112151;28;20052;-58
2023/08/09 02:52:11;;;;;;;5.75;4.68;;;;;;;;;;5111560;28;20047;-58
2023/08/09 02:54:38;;;;;;;4.60;4.15;;;;;;;;;;5092007;28;20052;-59
2023/08/09 02:57:05;;;;;;;5.13;3.83;;;;;;;;;;5095415;28;20067;-59
2023/08/09 02:59:32;;;;;;;4.93;4.30;;;;;;;;;;5099492;27;20070;-59
2023/08/09 03:01:59;;;;;;;5.05;4.30;;;;;;;;;;5115744;28;20055;-59
2023/08/09 03:04:26;;;;;;;6.15;4.88;;;;;;;;;;5115996;28;20074;-58
2023/08/09 03:06:56;;;;;;;4.63;4.15;;;;;;;;;;5115656;28;20051;-58
2023/08/09 03:09:24;;;;;;;4.90;4.07;;;;;;;;;;5115187;28;20488;-59
2023/08/09 03:11:51;;;;;;;4.80;4.30;;;;;;;;;;5115737;28;20052;-59
2023/08/09 03:14:18;;;;;;;6.30;4.50;;;;;;;;;;5127694;27;20054;-57
2023/08/09 03:16:44;;;;;;;6.13;4.90;;;;;;;;;;5113350;28;20047;-59
2023/08/09 03:19:11;;;;;;;7.95;6.00;;;;;;;;;;5115379;28;20058;-57
2023/08/09 03:21:38;;;;;;;6.78;4.00;;;;;;;;;;5115597;28;20048;-59
2023/08/09 03:24:05;;;;;;;7.75;5.90;;;;;;;;;;5115761;28;20048;-59
2023/08/09 03:26:37;;;;;;;7.82;5.82;;;;;;;;;;5115723;28;20118;-59
2023/08/09 03:29:04;;;;;;;7.07;5.55;;;;;;;;;;5114811;28;20052;-58
2023/08/09 03:31:30;;;;;;;6.47;5.20;;;;;;;;;;5116977;27;20051;-59
2023/08/09 03:33:59;;;;;;;7.13;4.90;;;;;;;;;;5115285;28;20044;-59
2023/08/09 03:36:26;;;;;;;5.90;4.80;;;;;;;;;;5114844;28;20062;-59
2023/08/09 03:38:56;;;;;;;9.88;5.65;;;;;;;;;;5115532;28;20480;-59
2023/08/09 03:41:25;;;;;;;5.93;5.28;;;;;;;;;;5115479;28;20499;-59
2023/08/09 03:43:53;;;;;;;5.38;4.20;;;;;;;;;;5115141;28;20086;-59
2023/08/09 03:46:20;;;;;;;6.97;5.68;;;;;;;;;;5110478;27;20420;-60
2023/08/09 03:48:47;;;;;;;6.05;4.50;;;;;;;;;;5115036;28;20051;-57
2023/08/09 03:51:14;;;;;;;5.22;4.20;;;;;;;;;;5115302;28;20484;-60
2023/08/09 03:53:40;;;;;;;5.35;4.07;;;;;;;;;;5115383;28;20047;-60
2023/08/09 03:56:07;;;;;;;6.15;4.75;;;;;;;;;;5115217;28;20067;-59
2023/08/09 03:58:34;;;;;;;6.47;5.28;;;;;;;;;;5115263;28;20052;-59
2023/08/09 04:01:02;;;;;;;7.25;5.15;;;;;;;;;;5117669;27;20047;-59
2023/08/09 04:03:29;;;;;;;4.68;4.18;;;;;;;;;;5107322;27;20164;-56
2023/08/09 04:05:56;;;;;;;7.45;5.80;;;;;;;;;;5111900;27;20047;-60
2023/08/09 04:08:26;;;;;;;7.00;4.85;;;;;;;;;;5114200;28;20392;-59
2023/08/09 04:10:54;;;;;;;;;;;;;;;;;;5115155;28;20058;-59
2023/08/09 04:13:21;;;;;;;5.30;4.10;;;;;;;;;;5114787;28;19919;-59
2023/08/09 04:15:48;;;;;;;5.22;4.38;;;;;;;;;;5117036;27;20427;-58
2023/08/09 04:18:16;;;;;;;5.28;4.43;;;;;;;;;;5106735;28;20056;-59
2023/08/09 04:20:43;;;;;;;5.43;4.00;;;;;;;;;;5114503;28;20051;-59
2023/08/09 04:23:10;;;;;;;7.50;5.20;;;;;;;;;;5114588;28;20496;-60
2023/08/09 04:25:37;;;;;;;6.53;5.40;;;;;;;;;;5114531;28;20412;-60
2023/08/09 04:28:04;;;;;;;6.30;5.30;;;;;;;;;;5114249;28;20074;-58
2023/08/09 04:30:31;;;;;;;8.25;5.60;;;;;;;;;;5115756;27;20047;-59
2023/08/09 04:33:00;;;;;;;5.00;4.45;;;;;;;;;;5114115;28;20431;-59
2023/08/09 04:35:28;;;;;;;5.63;4.20;;;;;;;;;;5113516;27;20056;-59
2023/08/09 04:37:55;;;;;;;4.63;4.10;;;;;;;;;;5111767;27;20043;-59
2023/08/09 04:40:24;;;;;;;5.97;4.35;;;;;;;;;;5113852;28;20051;-59
2023/08/09 04:42:52;;;;;;;4.60;3.80;;;;;;;;;;5114380;28;20067;-58
2023/08/09 04:45:19;;;;;;;7.03;4.80;;;;;;;;;;5111530;27;20498;-59
2023/08/09 04:47:47;;;;;;;7.22;5.78;;;;;;;;;;5103898;27;20056;-56
2023/08/09 04:50:13;;;;;;;7.93;6.25;;;;;;;;;;5114532;27;20051;-58
2023/08/09 04:52:42;;;;;;;7.15;5.55;;;;;;;;;;5111668;28;20052;-59
2023/08/09 04:55:10;;;;;;;6.80;5.50;;;;;;;;;;5113943;28;20539;-57
2023/08/09 04:57:38;;;;;;;6.28;5.30;;;;;;;;;;5113535;28;20058;-56
2023/08/09 05:00:08;;;;;;;8.07;6.53;;;;;;;;;;5112809;27;20051;-56
2023/08/09 05:02:36;;;;;;;8.25;6.40;;;;;;;;;;5111217;27;20078;-56
2023/08/09 05:05:03;;;;;;;6.30;5.60;;;;;;;;;;5105738;28;20480;-56
2023/08/09 05:07:30;;;;;;;7.07;5.15;;;;;;;;;;5110575;28;20059;-56
2023/08/09 05:09:58;;;;;;;7.18;6.25;;;;;;;;;;5112104;28;20400;-57
2023/08/09 05:12:25;;;;;;;10.00;8.60;;;;;;;;;;5109466;27;20059;-57
2023/08/09 05:14:51;;;;;;;11.27;10.18;;;;;;;;;;5113655;27;20055;-57
2023/08/09 05:17:18;;;;;;;11.68;10.48;;;;;;;;;;5110923;27;20052;-57
2023/08/09 05:19:45;;;;;;;10.98;9.85;;;;;;;;;;5108570;28;20419;-57
2023/08/09 05:22:12;;;;;;;10.15;9.15;;;;;;;;;;5113848;27;20051;-57
2023/08/09 05:24:39;;;;;;;11.73;10.52;;;;;;;;;;5107651;28;20047;-57
2023/08/09 05:27:07;;;;;;;12.63;10.13;;;;;;;;;;5106138;28;20052;-57
2023/08/09 05:29:34;;;;;;;12.70;11.40;;;;;;;;;;5112263;27;20538;-57
2023/08/09 05:32:00;;;;;;;12.27;10.88;;;;;;;;;;5112620;27;20384;-57
2023/08/09 05:34:27;;;;;;;13.18;11.88;;;;;;;;;;5095870;28;20051;-57
2023/08/09 05:36:54;;;;;;;12.25;11.00;;;;;;;;;;5085943;28;20047;-57
2023/08/09 05:39:22;;;;;;;14.38;12.40;;;;;;;;;;5103800;28;20058;-57
2023/08/09 05:41:48;;;;;;;11.88;10.45;;;;;;;;;;5088745;28;20048;-57
2023/08/09 05:44:17;;;;;;;11.35;10.15;;;;;;;;;;5095483;28;20043;-43
2023/08/09 05:46:44;;;;;;;11.43;9.98;;;;;;;;;;5104002;28;20047;-42
2023/08/09 05:49:10;;;;;;;11.13;10.02;;;;;;;;;;5110215;28;20379;-44
2023/08/09 05:51:37;;;;;;;12.20;10.50;;;;;;;;;;5104253;28;20047;-42
2023/08/09 05:54:04;;;;;;;10.65;9.57;;;;;;;;;;5108841;28;20484;-61
2023/08/09 05:56:31;;;;;;;11.88;10.48;;;;;;;;;;5094607;28;20063;-61
2023/08/09 05:58:58;;;;;;;10.25;8.93;;;;;;;;;;5092179;28;20052;-61
2023/08/09 06:01:28;;;;;;;13.02;10.38;;;;;;;;;;5093294;28;20048;-61
2023/08/09 06:03:55;;;;;;;10.45;9.45;;;;;;;;;;5112149;28;20051;-61
2023/08/09 06:06:22;;;;;;;12.10;9.70;;;;;;;;;;5112664;28;20063;-61
2023/08/09 06:08:49;;;;;;;10.02;8.95;;;;;;;;;;5106745;28;20052;-62
2023/08/09 06:11:16;;;;;;;10.65;9.52;;;;;;;;;;5092126;28;20056;-61
2023/08/09 06:13:43;;;;;;;11.02;9.68;;;;;;;;;;5092526;28;20052;-61
2023/08/09 06:16:10;;;;;;;11.95;10.55;;;;;;;;;;5082242;28;20048;-61
2023/08/09 06:18:38;;;;;;;12.32;10.00;;;;;;;;;;5098277;28;20054;-61
2023/08/09 06:21:05;;;;;;;11.27;10.10;;;;;;;;;;5108125;28;20055;-61
2023/08/09 06:23:32;;;;;;;14.05;10.85;;;;;;;;;;5104928;28;20051;-60
2023/08/09 06:25:59;;;;;;;12.55;10.63;;;;;;;;;;5103955;28;20055;-61
2023/08/09 06:28:25;;;;;;;11.85;9.98;;;;;;;;;;5100713;28;20056;-61
2023/08/09 06:30:52;;;;;;;10.95;9.95;;;;;;;;;;5102083;28;20047;-61
2023/08/09 06:33:19;;;;;;;9.95;8.95;;;;;;;;;;5103221;27;20055;-61
2023/08/09 06:35:47;;;;;;;10.00;8.68;;;;;;;;;;5115708;28;20043;-61
2023/08/09 06:38:14;;;;;;;9.30;8.40;;;;;;;;;;5114955;28;20077;-58
2023/08/09 06:40:41;;;;;;;10.52;9.43;;;;;;;;;;5115087;28;20058;-60
2023/08/09 06:43:08;;;;;;;9.00;8.00;;;;;;;;;;5113720;28;20058;-61
2023/08/09 06:45:34;;;;;;;9.02;7.95;;;;;;;;;;5113757;28;20040;-61
2023/08/09 06:48:01;;;;;;;8.88;7.20;;;;;;;;;;5112437;27;20062;-59
2023/08/09 06:50:28;;;;;;;7.68;6.88;;;;;;;;;;5112237;27;20051;-60
2023/08/09 06:52:56;;;;;;;8.02;7.03;;;;;;;;;;5120717;27;20522;-61
2023/08/09 06:55:23;;;;;;;7.15;6.38;;;;;;;;;;5110908;28;20055;-62
2023/08/09 06:57:50;;;;;;;7.47;6.28;;;;;;;;;;5096910;28;20059;-61
2023/08/09 07:00:17;;;;;;;5.88;4.90;;;;;;;;;;5096081;28;20409;-60
2023/08/09 07:02:45;;;;;;;7.25;5.72;;;;;;;;;;5105020;28;20048;-61
2023/08/09 07:05:15;;;;;;;7.30;5.85;;;;;;;;;;5105766;28;20417;-60
2023/08/09 07:07:43;;;;;;;6.93;6.28;;;;;;;;;;5105868;27;20063;-61
2023/08/09 07:10:11;;;;;;;7.75;5.90;;;;;;;;;;5108980;28;20165;-60
2023/08/09 07:12:38;;;;;;;6.03;5.13;;;;;;;;;;5101131;28;20066;-59
2023/08/09 07:15:08;;;;;;;6.78;6.07;;;;;;;;;;5108406;28;20070;-57
2023/08/09 07:17:35;;;;;;;6.15;5.55;;;;;;;;;;5099251;27;20048;-61
2023/08/09 07:20:02;;;;;;;6.47;5.88;;;;;;;;;;5105269;28;20052;-61
2023/08/09 07:22:29;;;;;;;7.53;5.90;;;;;;;;;;5106321;28;20058;-61
2023/08/09 07:24:55;;;;;;;6.90;6.10;;;;;;;;;;5097241;28;20059;-61
2023/08/09 07:27:23;;;;;;;6.20;5.47;;;;;;;;;;5100276;27;20055;-60
2023/08/09 07:29:50;;;;;;;5.35;4.85;;;;;;;;;;5096485;28;20047;-60
2023/08/09 07:32:17;;;;;;;6.57;5.18;;;;;;;;;;5100852;27;20055;-60
2023/08/09 07:34:44;;;;;;;5.45;4.85;;;;;;;;;;5100645;28;20048;-60
2023/08/09 07:37:11;;;;;;;5.25;4.75;;;;;;;;;;5092859;28;20059;-61
2023/08/09 07:39:37;;;;;;;7.78;5.28;;;;;;;;;;5093486;28;20067;-61
2023/08/09 07:42:04;;;;;;;6.43;4.95;;;;;;;;;;5102977;28;20396;-61
2023/08/09 07:44:33;;;;;;;7.75;5.10;;;;;;;;;;5093816;28;20480;-61
2023/08/09 07:46:59;;;;;;;6.63;4.65;;;;;;;;;;5099812;28;20075;-59
2023/08/09 07:49:26;;;;;;;6.88;5.80;;;;;;;;;;5105181;28;20055;-61
2023/08/09 07:51:54;;;;;;;5.60;5.00;;;;;;;;;;5103214;28;20051;-61
2023/08/09 07:54:20;;;;;;;7.20;5.35;;;;;;;;;;5112816;28;20052;-61
2023/08/09 07:56:46;;;;;;;5.68;5.07;;;;;;;;;;5095765;28;20477;-61
2023/08/09 07:59:13;;;;;;;6.80;5.45;;;;;;;;;;5104656;28;20048;-61
2023/08/09 08:01:41;;;;;;;5.90;5.05;;;;;;;;;;5096527;28;20054;-61
2023/08/09 08:04:08;;;;;;;6.70;6.00;;;;;;;;;;5107918;27;20065;-61
2023/08/09 08:06:35;;;;;;;7.03;5.07;;;;;;;;;;5104275;28;20511;-62
2023/08/09 08:09:03;;;;;;;5.78;4.57;;;;;;;;;;5103997;28;20052;-62
2023/08/09 08:11:30;;;;;;;5.20;4.22;;;;;;;;;;5099484;28;20052;-61
2023/08/09 08:13:57;;;;;;;6.43;4.53;;;;;;;;;;5099535;28;20047;-61
2023/08/09 08:16:24;;;;;;;4.97;4.05;;;;;;;;;;5088176;28;20050;-62
2023/08/09 08:18:52;;;;;;;4.75;4.25;;;;;;;;;;5094479;28;20063;-60
2023/08/09 08:21:19;;;;;;;4.55;3.88;;;;;;;;;;5112230;28;20078;-61
2023/08/09 08:23:46;;;;;;;5.03;3.80;;;;;;;;;;5104297;28;20468;-62
2023/08/09 08:26:13;;;;;;;6.65;3.40;;;;;;;;;;5112793;28;20058;-61
2023/08/09 08:28:39;;;;;;;3.28;2.63;;;;;;;;;;5104666;28;20051;-62
2023/08/09 08:31:07;;;;;;;4.60;2.70;;;;;;;;;;5109798;28;20058;-62
2023/08/09 08:33:34;;;;;;;3.08;2.53;;;;;;;;;;5090311;28;20085;-62
2023/08/09 08:36:02;;;;;;;3.97;2.85;;;;;;;;;;5092353;28;20489;-61
2023/08/09 08:38:29;;;;;;;3.85;2.80;;;;;;;;;;5092548;28;20044;-62
2023/08/09 08:40:57;;;;;;;3.67;2.83;;;;;;;;;;5090832;28;20040;-62
2023/08/09 08:43:24;;;;;;;4.95;2.85;;;;;;;;;;5079945;28;20397;-62
2023/08/09 08:45:50;;;;;;;4.68;2.78;;;;;;;;;;5096853;28;20504;-62
2023/08/09 08:48:18;;;;;;;4.03;2.67;;;;;;;;;;5081443;28;20052;-61
2023/08/09 08:50:45;;;;;;;3.90;2.75;;;;;;;;;;5090796;28;20044;-63
2023/08/09 08:53:14;;;;;;;3.28;2.72;;;;;;;;;;5089025;28;20408;-62
2023/08/09 08:55:40;;;;;;;4.55;3.38;;;;;;;;;;5107298;28;20059;-60
2023/08/09 08:58:08;;;;;;;4.20;3.80;;;;;;;;;;5085290;28;20064;-59
2023/08/09 09:00:35;;;;;;;2.88;2.63;;;;;;;;;;5086719;28;20055;-62
2023/08/09 09:03:02;;;;;;;3.28;2.47;;;;;;;;;;5082127;28;20497;-62
2023/08/09 09:05:29;;;;;;;3.67;2.65;;;;;;;;;;5085434;28;20063;-62
2023/08/09 09:07:57;;;;;;;4.82;2.70;;;;;;;;;;5087139;28;20052;-58
2023/08/09 09:10:25;;;;;;;3.08;2.15;;;;;;;;;;5090002;28;20052;-59
2023/08/09 09:12:53;;;;;;;3.83;2.70;;;;;;;;;;5088810;28;20370;-58
2023/08/09 09:15:20;;;;;;;2.53;2.17;;;;;;;;;;5083503;28;20056;-58
2023/08/09 09:17:48;;;;;;;3.40;2.37;;;;;;;;;;5091229;28;20059;-59
2023/08/09 09:20:18;;;;;;;2.67;2.38;;;;;;;;;;5092161;28;20511;-59
2023/08/09 09:22:46;;;;;;;4.43;2.75;;;;;;;;;;5091360;28;20066;-59
2023/08/09 09:25:14;;;;;;;;;;;;;;;;;;5095528;28;20082;-61
2023/08/09 09:27:42;;;;;;;3.45;2.17;;;;;;;;;;5091908;28;19919;-62
2023/08/09 09:30:13;;;;;;;3.88;2.08;;;;;;;;;;5090602;28;20500;-61
2023/08/09 09:32:41;;;;;;;2.70;2.20;;;;;;;;;;5087607;28;20059;-61
2023/08/09 09:35:10;;;;;;;3.92;2.60;;;;;;;;;;5109435;28;20652;-61
2023/08/09 09:37:37;;;;;;;2.55;1.80;;;;;;;;;;5112602;28;20110;-59
2023/08/09 09:40:10;;;;;;;3.17;2.10;;;;;;;;;;5107156;28;20055;-58
2023/08/09 09:42:37;;;;;;;2.20;1.95;;;;;;;;;;5100880;28;20055;-58
2023/08/09 09:45:07;;;;;;;3.45;2.50;;;;;;;;;;5103483;28;20059;-61
2023/08/09 09:47:38;;;;;;;2.78;2.30;;;;;;;;;;5100731;28;20056;-61
2023/08/09 09:50:07;;;;;;;2.42;1.85;;;;;;;;;;5109516;28;20051;-61
2023/08/09 09:52:35;;;;;;;3.40;1.98;;;;;;;;;;5103813;28;20071;-61
2023/08/09 09:55:02;;;;;;;3.90;1.92;;;;;;;;;;5108439;28;20074;-60
2023/08/09 09:57:28;;;;;;;6.05;1.75;;;;;;;;;;5105420;28;20048;-58
2023/08/09 09:59:58;;;;;;;3.35;1.98;;;;;;;;;;5101212;28;20499;-58
2023/08/09 10:02:30;;;;;;;2.63;2.00;;;;;;;;;;5095501;28;20055;-58
2023/08/09 10:04:58;;;;;;;3.00;2.00;;;;;;;;;;5103934;28;20055;-58
2023/08/09 10:07:28;;;;;;;3.25;2.75;;;;;;;;;;5105645;28;20043;-58
2023/08/09 10:09:54;;;;;;;3.17;1.83;;;;;;;;;;5105764;28;20044;-59
2023/08/09 10:12:22;;;;;;;2.90;2.00;;;;;;;;;;5103855;28;20480;-58
2023/08/09 10:14:48;;;;;;;3.25;2.00;;;;;;;;;;5104219;28;20043;-59
2023/08/09 10:17:16;;;;;;;2.87;1.97;;;;;;;;;;5104001;28;20396;-60
2023/08/09 10:19:47;;;;;;;2.88;1.98;;;;;;;;;;5104136;28;20052;-61
2023/08/09 10:22:18;;;;;;;2.60;1.77;;;;;;;;;;5097894;28;20052;-60
2023/08/09 10:24:47;;;;;;;2.95;2.00;;;;;;;;;;5108545;28;20059;-59
2023/08/09 10:27:14;;;;;;;3.95;2.28;;;;;;;;;;5106537;28;20043;-61
2023/08/09 10:29:41;;;;;;;4.43;1.98;;;;;;;;;;5111883;28;20051;-61
2023/08/09 10:32:08;;;;;;;3.53;2.10;;;;;;;;;;5108236;28;20054;-61
2023/08/09 10:34:40;;;;;;;3.13;2.22;;;;;;;;;;5112926;28;20074;-60
2023/08/09 10:37:09;;;;;;;3.63;2.17;;;;;;;;;;5109565;28;20051;-60
2023/08/09 10:39:37;;;;;;;3.30;2.05;;;;;;;;;;5112396;28;20071;-60
2023/08/09 10:42:04;;;;;;;;;;;;;;;;;;5111429;28;20047;-61
2023/08/09 10:44:35;;;;;;;3.00;2.50;;;;;;;;;;5111538;28;19927;-58
2023/08/09 10:47:03;;;;;;;4.10;3.05;;;;;;;;;;5110710;28;20048;-60
2023/08/09 10:49:48;;;;;;;4.10;3.28;;;;;;;;;;5107346;28;20056;-60
2023/08/09 10:52:17;;;;;;;5.10;3.40;;;;;;;;;;5111666;28;20058;-60
2023/08/09 10:54:44;;;;;;;4.60;3.17;;;;;;;;;;5111543;28;20067;-58
2023/08/09 10:57:11;;;;;;;5.55;3.33;;;;;;;;;;5105137;28;20051;-58
2023/08/09 10:59:39;;;;;;;5.55;3.42;;;;;;;;;;5097531;28;20052;-58
2023/08/09 11:02:06;;;;;;;4.47;3.53;;;;;;;;;;5105156;28;20397;-58
2023/08/09 11:04:34;;;;;;;6.38;3.30;;;;;;;;;;5109710;28;20055;-67
2023/08/09 11:07:01;;;;;;;5.15;3.85;;;;;;;;;;5110434;28;20070;-63
2023/08/09 11:09:31;;;;;;;4.53;3.30;;;;;;;;;;5114651;28;20047;-61
2023/08/09 11:11:58;;;;;;;5.03;3.63;;;;;;;;;;5132421;28;20078;-61
2023/08/09 11:14:25;;;;;;;6.13;4.35;;;;;;;;;;5116464;28;20052;-57
2023/08/09 11:16:52;;;;;;;4.90;4.07;;;;;;;;;;5113536;28;20051;-57
2023/08/09 11:19:20;;;;;;;5.43;4.15;;;;;;;;;;5115029;27;20127;-58
2023/08/09 11:21:50;;;;;;;5.35;4.30;;;;;;;;;;5115230;28;20058;-57
2023/08/09 11:24:19;;;;;;;4.75;3.33;;;;;;;;;;5107236;28;20063;-57
2023/08/09 11:26:48;;;;;;;6.50;3.80;;;;;;;;;;5115449;28;20395;-58
2023/08/09 11:29:15;;;;;;;6.47;3.70;;;;;;;;;;5114724;28;20447;-57
2023/08/09 11:31:42;;;;;;;4.40;3.70;;;;;;;;;;5115351;28;20055;-58
2023/08/09 11:34:10;;;;;;;5.25;3.60;;;;;;;;;;5105783;28;20075;-57
2023/08/09 11:36:38;;;;;;;5.18;3.58;;;;;;;;;;5113769;28;20044;-58
2023/08/09 11:39:05;;;;;;;4.57;3.60;;;;;;;;;;5114822;28;20047;-58
2023/08/09 11:41:40;;;;;;;4.20;3.75;;;;;;;;;;5113973;28;20047;-58
2023/08/09 11:44:09;;;;;;;6.00;3.63;;;;;;;;;;5114771;28;20062;-58
2023/08/09 11:46:36;;;;;;;4.10;3.40;;;;;;;;;;5115138;28;20464;-58
2023/08/09 11:49:03;;;;;;;4.13;3.25;;;;;;;;;;5114417;27;20048;-58
2023/08/09 11:51:31;;;;;;;3.92;3.40;;;;;;;;;;5114366;27;20052;-58
2023/08/09 11:53:58;;;;;;;4.32;3.25;;;;;;;;;;5106198;28;20048;-57
2023/08/09 11:56:25;;;;;;;3.55;3.13;;;;;;;;;;5114842;28;20373;-58
2023/08/09 11:58:53;;;;;;;5.30;3.45;;;;;;;;;;5114746;28;20047;-58
2023/08/09 12:01:22;;;;;;;3.83;2.85;;;;;;;;;;5114304;28;20471;-57
2023/08/09 12:03:51;;;;;;;4.00;2.90;;;;;;;;;;5115436;27;20043;-58
2023/08/09 12:06:18;;;;;;;3.88;3.28;;;;;;;;;;5114406;28;20047;-58
2023/08/09 12:08:45;;;;;;;4.28;2.90;;;;;;;;;;5114762;28;20055;-57
2023/08/09 12:11:15;;;;;;;3.70;2.92;;;;;;;;;;5127417;27;20404;-58
2023/08/09 12:13:42;;;;;;;4.15;2.45;;;;;;;;;;5124182;27;20518;-58
2023/08/09 12:16:09;;;;;;;3.33;2.40;;;;;;;;;;5114058;28;20062;-58
2023/08/09 12:18:37;;;;;;;4.18;2.40;;;;;;;;;;5115139;27;20062;-58
2023/08/09 12:21:06;;;;;;;3.67;2.33;;;;;;;;;;5114177;28;20063;-58
2023/08/09 12:23:33;;;;;;;3.50;2.40;;;;;;;;;;5114481;28;20056;-57
2023/08/09 12:26:00;;;;;;;3.20;1.92;;;;;;;;;;5113434;28;20052;-58
2023/08/09 12:28:27;;;;;;;5.75;2.42;;;;;;;;;;5113477;28;20059;-58
2023/08/09 12:30:54;;;;;;;3.50;2.45;;;;;;;;;;5113188;28;20058;-58
2023/08/09 12:33:21;;;;;;;2.78;2.00;;;;;;;;;;5105553;27;20051;-58
2023/08/09 12:35:49;;;;;;;4.43;2.25;;;;;;;;;;5113191;27;20400;-58
2023/08/09 12:38:16;;;;;;;3.63;2.03;;;;;;;;;;5113665;28;20052;-58
2023/08/09 12:40:44;;;;;;;4.33;2.13;;;;;;;;;;5118431;27;20051;-58
2023/08/09 12:43:11;;;;;;;3.10;2.03;;;;;;;;;;5134217;27;20059;-58
2023/08/09 12:45:38;;;;;;;3.35;2.10;;;;;;;;;;5134032;27;20476;-58
2023/08/09 12:48:05;;;;;;;6.68;2.22;;;;;;;;;;5126196;27;20043;-58
2023/08/09 12:50:32;;;;;;;2.20;1.95;;;;;;;;;;5113135;27;20048;-59
2023/08/09 12:53:00;;;;;;;3.38;1.90;;;;;;;;;;5127769;27;20059;-58
2023/08/09 12:55:26;;;;;;;3.33;2.38;;;;;;;;;;5113728;28;20399;-58
2023/08/09 12:57:53;;;;;;;2.30;1.88;;;;;;;;;;5131999;27;20147;-58
2023/08/09 13:00:22;;;;;;;3.58;2.20;;;;;;;;;;5134046;27;20051;-58
2023/08/09 13:02:49;;;;;;;4.15;2.22;;;;;;;;;;5118419;27;20475;-57
2023/08/09 13:05:16;;;;;;;4.07;2.30;;;;;;;;;;5113877;27;20055;-57
2023/08/09 13:07:42;;;;;;;3.28;2.13;;;;;;;;;;5127306;27;20050;-57
2023/08/09 13:10:11;;;;;;;3.08;2.47;;;;;;;;;;5133530;27;20055;-57
2023/08/09 13:12:38;;;;;;;3.42;2.40;;;;;;;;;;5120972;27;20062;-57
2023/08/09 13:15:06;;;;;;;4.70;2.63;;;;;;;;;;5113117;28;20151;-57
2023/08/09 13:17:33;;;;;;;3.58;2.50;;;;;;;;;;5123140;27;20151;-57
2023/08/09 13:19:59;;;;;;;2.83;2.42;;;;;;;;;;5116225;27;20052;-57
2023/08/09 13:22:26;;;;;;;2.75;2.05;;;;;;;;;;5112426;28;20062;-57
2023/08/09 13:24:54;;;;;;;3.40;2.30;;;;;;;;;;5113213;28;20065;-57
2023/08/09 13:27:22;;;;;;;3.20;2.20;;;;;;;;;;5118459;27;20051;-57
2023/08/09 13:29:49;;;;;;;2.85;2.40;;;;;;;;;;5133591;27;20480;-57
2023/08/09 13:32:16;;;;;;;3.50;2.58;;;;;;;;;;5129485;27;20051;-59
2023/08/09 13:34:43;;;;;;;2.83;2.33;;;;;;;;;;5083878;28;20056;-58
2023/08/09 13:37:10;;;;;;;3.15;2.38;;;;;;;;;;5088964;28;20056;-58
2023/08/09 13:39:37;;;;;;;3.83;2.63;;;;;;;;;;5080881;28;20583;-58
2023/08/09 13:42:04;;;;;;;3.30;2.47;;;;;;;;;;5092451;28;20078;-58
2023/08/09 13:44:32;;;;;;;5.30;2.88;;;;;;;;;;5086916;28;20484;-58
2023/08/09 13:46:59;;;;;;;2.65;2.42;;;;;;;;;;5092033;28;20059;-58
2023/08/09 13:49:26;;;;;;;4.90;3.00;;;;;;;;;;5095412;28;20058;-58
2023/08/09 13:51:52;;;;;;;4.30;2.40;;;;;;;;;;5112185;28;20055;-58
2023/08/09 13:54:19;;;;;;;4.68;2.60;;;;;;;;;;5095776;28;20052;-58
2023/08/09 13:56:49;;;;;;;4.25;1.75;;;;;;;;;;5092652;28;20056;-58
2023/08/09 13:59:16;;;;;;;3.05;2.05;;;;;;;;;;5091726;28;20059;-58
2023/08/09 14:01:44;;;;;;;3.75;2.40;;;;;;;;;;5091986;28;20055;-58
2023/08/09 14:04:14;;;;;;;2.95;2.00;;;;;;;;;;5083221;28;20078;-62
2023/08/09 14:06:41;;;;;;;2.55;2.00;;;;;;;;;;5112369;28;20492;-62
2023/08/09 14:09:08;;;;;;;3.58;1.88;;;;;;;;;;5099176;28;20543;-58
2023/08/09 14:11:34;;;;;;;3.08;1.80;;;;;;;;;;5092209;28;20059;-57
2023/08/09 14:14:01;;;;;;;3.10;1.80;;;;;;;;;;5092466;28;20076;-59
2023/08/09 14:16:28;;;;;;;3.10;1.75;;;;;;;;;;5092407;28;20052;-58
2023/08/09 14:18:56;;;;;;;4.32;2.00;;;;;;;;;;5086176;28;20398;-58
2023/08/09 14:21:23;;;;;;;3.25;1.60;;;;;;;;;;5112327;28;20151;-58
2023/08/09 14:23:50;;;;;;;3.25;1.55;;;;;;;;;;5087245;28;20055;-58
2023/08/09 14:26:17;;;;;;;2.53;1.40;;;;;;;;;;5103739;28;20056;-58
2023/08/09 14:28:43;;;;;;;6.05;2.35;;;;;;;;;;5107305;28;20044;-58
2023/08/09 14:31:10;;;;;;;2.15;1.40;;;;;;;;;;5088887;28;20052;-58
2023/08/09 14:33:37;;;;;;;2.78;1.40;;;;;;;;;;5092187;28;20059;-59
2023/08/09 14:36:06;;;;;;;2.90;1.40;;;;;;;;;;5113091;28;20059;-58
2023/08/09 14:38:32;;;;;;;;;;;;;;;;;;5112490;28;20044;-58
2023/08/09 14:40:59;;;;;;;3.40;1.20;;;;;;;;;;5131202;28;19926;-57
2023/08/09 14:43:26;;;;;;;3.50;1.30;;;;;;;;;;5128733;28;20067;-57
2023/08/09 14:45:53;;;;;;;2.15;1.38;;;;;;;;;;5130392;28;20058;-56